sensor_id;sensor_type;location;lat;lon;timestamp;P1;durP1;ratioP1;P2;durP2;ratioP2
64894;SDS011;51588;53.702;10.208;2023-08-12T00:02:13;3.60;;;3.30;;
64894;SDS011;51588;53.702;10.208;2023-08-12T00:04:40;3.40;;;3.10;;
64894;SDS011;51588;53.702;10.208;2023-08-12T00:07:06;3.73;;;3.37;;
64894;SDS011;51588;53.702;10.208;2023-08-12T00:09:32;3.30;;;3.00;;
64894;SDS011;51588;53.702;10.208;2023-08-12T00:11:59;3.80;;;3.27;;
64894;SDS011;51588;53.702;10.208;2023-08-12T00:14:25;4.20;;;3.60;;
64894;SDS011;51588;53.702;10.208;2023-08-12T00:16:53;3.30;;;3.00;;
64894;SDS011;51588;53.702;10.208;2023-08-12T00:19:19;3.63;;;3.13;;
64894;SDS011;51588;53.702;10.208;2023-08-12T00:21:46;3.60;;;3.30;;
64894;SDS011;51588;53.702;10.208;2023-08-12T00:24:12;3.20;;;2.70;;
64894;SDS011;51588;53.702;10.208;2023-08-12T00:26:38;5.03;;;3.53;;
64894;SDS011;51588;53.702;10.208;2023-08-12T00:29:05;3.67;;;3.37;;
64894;SDS011;51588;53.702;10.208;2023-08-12T00:31:31;3.63;;;3.33;;
64894;SDS011;51588;53.702;10.208;2023-08-12T00:33:59;4.00;;;3.60;;
64894;SDS011;51588;53.702;10.208;2023-08-12T00:36:25;5.37;;;3.67;;
64894;SDS011;51588;53.702;10.208;2023-08-12T00:38:51;3.50;;;3.20;;
64894;SDS011;51588;53.702;10.208;2023-08-12T00:41:18;3.77;;;3.47;;
64894;SDS011;51588;53.702;10.208;2023-08-12T00:43:44;4.10;;;3.70;;
64894;SDS011;51588;53.702;10.208;2023-08-12T00:46:10;4.33;;;3.13;;
64894;SDS011;51588;53.702;10.208;2023-08-12T00:48:37;3.23;;;3.03;;
64894;SDS011;51588;53.702;10.208;2023-08-12T00:51:06;3.20;;;2.90;;
64894;SDS011;51588;53.702;10.208;2023-08-12T00:53:33;3.40;;;3.10;;
64894;SDS011;51588;53.702;10.208;2023-08-12T00:55:59;3.50;;;3.20;;
64894;SDS011;51588;53.702;10.208;2023-08-12T00:58:26;3.47;;;3.17;;
64894;SDS011;51588;53.702;10.208;2023-08-12T01:00:52;3.53;;;3.03;;
64894;SDS011;51588;53.702;10.208;2023-08-12T01:03:19;3.70;;;2.73;;
64894;SDS011;51588;53.702;10.208;2023-08-12T01:05:46;3.50;;;3.20;;
64894;SDS011;51588;53.702;10.208;2023-08-12T01:08:14;3.67;;;3.37;;
64894;SDS011;51588;53.702;10.208;2023-08-12T01:10:42;3.10;;;2.83;;
64894;SDS011;51588;53.702;10.208;2023-08-12T01:13:14;3.33;;;3.03;;
64894;SDS011;51588;53.702;10.208;2023-08-12T01:15:42;3.53;;;3.23;;
64894;SDS011;51588;53.702;10.208;2023-08-12T01:18:09;3.40;;;3.10;;
64894;SDS011;51588;53.702;10.208;2023-08-12T01:20:37;3.30;;;3.00;;
64894;SDS011;51588;53.702;10.208;2023-08-12T01:23:09;3.37;;;3.07;;
64894;SDS011;51588;53.702;10.208;2023-08-12T01:25:36;3.13;;;2.83;;
64894;SDS011;51588;53.702;10.208;2023-08-12T01:28:02;4.10;;;3.33;;
64894;SDS011;51588;53.702;10.208;2023-08-12T01:30:29;3.60;;;3.30;;
64894;SDS011;51588;53.702;10.208;2023-08-12T01:32:57;3.30;;;3.00;;
64894;SDS011;51588;53.702;10.208;2023-08-12T01:35:28;4.00;;;3.70;;
64894;SDS011;51588;53.702;10.208;2023-08-12T01:37:57;3.67;;;3.33;;
64894;SDS011;51588;53.702;10.208;2023-08-12T01:40:25;3.87;;;3.47;;
64894;SDS011;51588;53.702;10.208;2023-08-12T01:42:52;3.47;;;3.17;;
64894;SDS011;51588;53.702;10.208;2023-08-12T01:45:19;3.63;;;3.30;;
64894;SDS011;51588;53.702;10.208;2023-08-12T01:47:45;3.37;;;3.07;;
64894;SDS011;51588;53.702;10.208;2023-08-12T01:50:12;3.27;;;3.00;;
64894;SDS011;51588;53.702;10.208;2023-08-12T01:52:39;3.00;;;2.80;;
64894;SDS011;51588;53.702;10.208;2023-08-12T01:55:06;3.77;;;3.37;;
64894;SDS011;51588;53.702;10.208;2023-08-12T01:57:34;3.67;;;3.37;;
64894;SDS011;51588;53.702;10.208;2023-08-12T02:00:00;3.50;;;3.20;;
64894;SDS011;51588;53.702;10.208;2023-08-12T02:02:27;3.20;;;2.90;;
64894;SDS011;51588;53.702;10.208;2023-08-12T02:04:53;3.20;;;2.90;;
64894;SDS011;51588;53.702;10.208;2023-08-12T02:07:19;3.20;;;2.90;;
64894;SDS011;51588;53.702;10.208;2023-08-12T02:09:46;4.00;;;3.10;;
64894;SDS011;51588;53.702;10.208;2023-08-12T02:12:12;3.20;;;2.90;;
64894;SDS011;51588;53.702;10.208;2023-08-12T02:14:40;3.80;;;2.80;;
64894;SDS011;51588;53.702;10.208;2023-08-12T02:17:06;3.63;;;3.33;;
64894;SDS011;51588;53.702;10.208;2023-08-12T02:19:33;3.43;;;3.13;;
64894;SDS011;51588;53.702;10.208;2023-08-12T02:21:59;3.40;;;3.10;;
64894;SDS011;51588;53.702;10.208;2023-08-12T02:24:26;3.60;;;3.23;;
64894;SDS011;51588;53.702;10.208;2023-08-12T02:26:52;3.63;;;3.33;;
64894;SDS011;51588;53.702;10.208;2023-08-12T02:29:19;3.10;;;2.87;;
64894;SDS011;51588;53.702;10.208;2023-08-12T02:31:47;3.47;;;2.87;;
64894;SDS011;51588;53.702;10.208;2023-08-12T02:34:13;3.50;;;3.20;;
64894;SDS011;51588;53.702;10.208;2023-08-12T02:36:39;3.00;;;2.80;;
64894;SDS011;51588;53.702;10.208;2023-08-12T02:39:06;3.77;;;3.10;;
64894;SDS011;51588;53.702;10.208;2023-08-12T02:41:32;3.20;;;2.97;;
64894;SDS011;51588;53.702;10.208;2023-08-12T02:43:58;3.57;;;3.20;;
64894;SDS011;51588;53.702;10.208;2023-08-12T02:46:25;3.33;;;3.03;;
64894;SDS011;51588;53.702;10.208;2023-08-12T02:48:52;3.50;;;3.20;;
64894;SDS011;51588;53.702;10.208;2023-08-12T02:51:19;3.50;;;3.20;;
64894;SDS011;51588;53.702;10.208;2023-08-12T02:53:45;3.10;;;2.90;;
64894;SDS011;51588;53.702;10.208;2023-08-12T02:56:12;4.27;;;3.17;;
64894;SDS011;51588;53.702;10.208;2023-08-12T02:58:38;4.07;;;3.67;;
64894;SDS011;51588;53.702;10.208;2023-08-12T03:01:04;4.17;;;3.20;;
64894;SDS011;51588;53.702;10.208;2023-08-12T03:03:31;3.33;;;3.03;;
64894;SDS011;51588;53.702;10.208;2023-08-12T03:05:59;3.50;;;3.20;;
64894;SDS011;51588;53.702;10.208;2023-08-12T03:08:25;3.30;;;3.10;;
64894;SDS011;51588;53.702;10.208;2023-08-12T03:10:57;3.50;;;3.20;;
64894;SDS011;51588;53.702;10.208;2023-08-12T03:13:24;3.10;;;2.90;;
64894;SDS011;51588;53.702;10.208;2023-08-12T03:15:50;3.00;;;2.80;;
64894;SDS011;51588;53.702;10.208;2023-08-12T03:18:16;2.90;;;2.70;;
64894;SDS011;51588;53.702;10.208;2023-08-12T03:20:43;3.97;;;3.23;;
64894;SDS011;51588;53.702;10.208;2023-08-12T03:23:11;3.47;;;3.17;;
64894;SDS011;51588;53.702;10.208;2023-08-12T03:25:37;2.73;;;2.53;;
64894;SDS011;51588;53.702;10.208;2023-08-12T03:28:03;3.50;;;3.20;;
64894;SDS011;51588;53.702;10.208;2023-08-12T03:30:30;3.17;;;2.80;;
64894;SDS011;51588;53.702;10.208;2023-08-12T03:32:56;3.20;;;2.90;;
64894;SDS011;51588;53.702;10.208;2023-08-12T03:35:23;3.50;;;3.20;;
64894;SDS011;51588;53.702;10.208;2023-08-12T03:37:49;3.50;;;3.20;;
64894;SDS011;51588;53.702;10.208;2023-08-12T03:40:17;3.53;;;3.23;;
64894;SDS011;51588;53.702;10.208;2023-08-12T03:42:44;3.50;;;3.30;;
64894;SDS011;51588;53.702;10.208;2023-08-12T03:45:10;3.00;;;2.80;;
64894;SDS011;51588;53.702;10.208;2023-08-12T03:47:36;3.27;;;3.07;;
64894;SDS011;51588;53.702;10.208;2023-08-12T03:50:03;3.40;;;3.10;;
64894;SDS011;51588;53.702;10.208;2023-08-12T03:52:29;3.33;;;3.03;;
64894;SDS011;51588;53.702;10.208;2023-08-12T03:54:56;3.50;;;3.20;;
64894;SDS011;51588;53.702;10.208;2023-08-12T03:57:23;3.20;;;2.90;;
64894;SDS011;51588;53.702;10.208;2023-08-12T03:59:50;2.93;;;2.73;;
64894;SDS011;51588;53.702;10.208;2023-08-12T04:02:16;3.23;;;2.93;;
64894;SDS011;51588;53.702;10.208;2023-08-12T04:04:43;3.20;;;2.90;;
64894;SDS011;51588;53.702;10.208;2023-08-12T04:07:09;2.90;;;2.70;;
64894;SDS011;51588;53.702;10.208;2023-08-12T04:09:35;3.40;;;3.10;;
64894;SDS011;51588;53.702;10.208;2023-08-12T04:12:02;3.40;;;3.10;;
64894;SDS011;51588;53.702;10.208;2023-08-12T04:14:29;3.23;;;2.93;;
64894;SDS011;51588;53.702;10.208;2023-08-12T04:16:56;3.87;;;3.43;;
64894;SDS011;51588;53.702;10.208;2023-08-12T04:19:22;2.97;;;2.77;;
64894;SDS011;51588;53.702;10.208;2023-08-12T04:21:49;3.73;;;3.43;;
64894;SDS011;51588;53.702;10.208;2023-08-12T04:24:15;3.57;;;3.10;;
64894;SDS011;51588;53.702;10.208;2023-08-12T04:26:42;2.90;;;2.70;;
64894;SDS011;51588;53.702;10.208;2023-08-12T04:29:08;3.57;;;3.27;;
64894;SDS011;51588;53.702;10.208;2023-08-12T04:31:36;2.97;;;2.60;;
64894;SDS011;51588;53.702;10.208;2023-08-12T04:34:02;3.10;;;2.80;;
64894;SDS011;51588;53.702;10.208;2023-08-12T04:36:29;3.47;;;3.17;;
64894;SDS011;51588;53.702;10.208;2023-08-12T04:38:55;3.17;;;2.97;;
64894;SDS011;51588;53.702;10.208;2023-08-12T04:41:22;3.47;;;3.17;;
64894;SDS011;51588;53.702;10.208;2023-08-12T04:43:49;3.20;;;2.90;;
64894;SDS011;51588;53.702;10.208;2023-08-12T04:46:15;3.43;;;2.90;;
64894;SDS011;51588;53.702;10.208;2023-08-12T04:48:43;3.70;;;3.30;;
64894;SDS011;51588;53.702;10.208;2023-08-12T04:51:10;3.37;;;3.07;;
64894;SDS011;51588;53.702;10.208;2023-08-12T04:53:37;3.23;;;2.93;;
64894;SDS011;51588;53.702;10.208;2023-08-12T04:56:03;2.80;;;2.60;;
64894;SDS011;51588;53.702;10.208;2023-08-12T04:58:29;3.20;;;2.90;;
64894;SDS011;51588;53.702;10.208;2023-08-12T05:00:56;3.43;;;3.13;;
64894;SDS011;51588;53.702;10.208;2023-08-12T05:03:23;3.27;;;2.97;;
64894;SDS011;51588;53.702;10.208;2023-08-12T05:05:51;2.93;;;2.63;;
64894;SDS011;51588;53.702;10.208;2023-08-12T05:08:17;3.30;;;3.00;;
64894;SDS011;51588;53.702;10.208;2023-08-12T05:10:45;3.50;;;3.20;;
64894;SDS011;51588;53.702;10.208;2023-08-12T05:13:12;3.20;;;2.90;;
64894;SDS011;51588;53.702;10.208;2023-08-12T05:15:39;3.13;;;2.93;;
64894;SDS011;51588;53.702;10.208;2023-08-12T05:18:05;3.00;;;2.80;;
64894;SDS011;51588;53.702;10.208;2023-08-12T05:20:32;2.73;;;2.53;;
64894;SDS011;51588;53.702;10.208;2023-08-12T05:22:59;3.47;;;2.77;;
64894;SDS011;51588;53.702;10.208;2023-08-12T05:25:26;4.80;;;3.60;;
64894;SDS011;51588;53.702;10.208;2023-08-12T05:27:52;3.47;;;3.20;;
64894;SDS011;51588;53.702;10.208;2023-08-12T05:30:18;3.43;;;3.13;;
64894;SDS011;51588;53.702;10.208;2023-08-12T05:32:45;2.97;;;2.77;;
64894;SDS011;51588;53.702;10.208;2023-08-12T05:35:11;3.03;;;2.83;;
64894;SDS011;51588;53.702;10.208;2023-08-12T05:37:38;3.27;;;3.07;;
64894;SDS011;51588;53.702;10.208;2023-08-12T05:40:07;3.07;;;2.83;;
64894;SDS011;51588;53.702;10.208;2023-08-12T05:42:34;3.20;;;2.90;;
64894;SDS011;51588;53.702;10.208;2023-08-12T05:45:00;2.83;;;2.63;;
64894;SDS011;51588;53.702;10.208;2023-08-12T05:47:27;2.97;;;2.77;;
64894;SDS011;51588;53.702;10.208;2023-08-12T05:49:53;2.80;;;2.60;;
64894;SDS011;51588;53.702;10.208;2023-08-12T05:52:20;3.70;;;3.40;;
64894;SDS011;51588;53.702;10.208;2023-08-12T05:54:46;3.00;;;2.80;;
64894;SDS011;51588;53.702;10.208;2023-08-12T05:57:14;3.23;;;2.87;;
64894;SDS011;51588;53.702;10.208;2023-08-12T05:59:40;3.03;;;2.83;;
64894;SDS011;51588;53.702;10.208;2023-08-12T06:02:07;2.90;;;2.70;;
64894;SDS011;51588;53.702;10.208;2023-08-12T06:04:34;3.30;;;3.00;;
64894;SDS011;51588;53.702;10.208;2023-08-12T06:07:01;3.63;;;3.30;;
64894;SDS011;51588;53.702;10.208;2023-08-12T06:09:27;3.10;;;2.90;;
64894;SDS011;51588;53.702;10.208;2023-08-12T06:11:53;4.47;;;2.93;;
64894;SDS011;51588;53.702;10.208;2023-08-12T06:14:21;4.60;;;3.00;;
64894;SDS011;51588;53.702;10.208;2023-08-12T06:16:47;4.33;;;3.07;;
64894;SDS011;51588;53.702;10.208;2023-08-12T06:19:14;3.23;;;2.93;;
64894;SDS011;51588;53.702;10.208;2023-08-12T06:21:40;5.17;;;2.87;;
64894;SDS011;51588;53.702;10.208;2023-08-12T06:24:07;9.30;;;4.77;;
64894;SDS011;51588;53.702;10.208;2023-08-12T06:26:33;16.10;;;5.90;;
64894;SDS011;51588;53.702;10.208;2023-08-12T06:28:59;11.87;;;5.37;;
64894;SDS011;51588;53.702;10.208;2023-08-12T06:31:27;14.40;;;6.53;;
64894;SDS011;51588;53.702;10.208;2023-08-12T06:33:53;11.83;;;6.80;;
64894;SDS011;51588;53.702;10.208;2023-08-12T06:36:20;17.90;;;7.63;;
64894;SDS011;51588;53.702;10.208;2023-08-12T06:38:46;18.07;;;8.50;;
64894;SDS011;51588;53.702;10.208;2023-08-12T06:41:12;25.30;;;9.10;;
64894;SDS011;51588;53.702;10.208;2023-08-12T06:43:39;18.07;;;9.70;;
64894;SDS011;51588;53.702;10.208;2023-08-12T06:46:05;19.93;;;8.50;;
64894;SDS011;51588;53.702;10.208;2023-08-12T06:48:33;14.17;;;6.70;;
64894;SDS011;51588;53.702;10.208;2023-08-12T06:50:59;22.13;;;7.07;;
64894;SDS011;51588;53.702;10.208;2023-08-12T06:53:29;25.53;;;8.27;;
64894;SDS011;51588;53.702;10.208;2023-08-12T06:55:55;19.80;;;7.60;;
64894;SDS011;51588;53.702;10.208;2023-08-12T06:58:22;16.70;;;7.30;;
64894;SDS011;51588;53.702;10.208;2023-08-12T07:00:48;30.90;;;11.97;;
64894;SDS011;51588;53.702;10.208;2023-08-12T07:03:15;17.43;;;8.97;;
64894;SDS011;51588;53.702;10.208;2023-08-12T07:05:43;22.47;;;9.00;;
64894;SDS011;51588;53.702;10.208;2023-08-12T07:08:09;27.43;;;10.63;;
64894;SDS011;51588;53.702;10.208;2023-08-12T07:10:37;24.53;;;10.47;;
64894;SDS011;51588;53.702;10.208;2023-08-12T07:13:03;23.70;;;10.83;;
64894;SDS011;51588;53.702;10.208;2023-08-12T07:15:30;21.20;;;10.20;;
64894;SDS011;51588;53.702;10.208;2023-08-12T07:17:56;20.33;;;9.93;;
64894;SDS011;51588;53.702;10.208;2023-08-12T07:20:23;19.80;;;9.87;;
64894;SDS011;51588;53.702;10.208;2023-08-12T07:22:51;16.63;;;8.80;;
64894;SDS011;51588;53.702;10.208;2023-08-12T07:25:17;15.97;;;8.67;;
64894;SDS011;51588;53.702;10.208;2023-08-12T07:27:44;16.90;;;7.90;;
64894;SDS011;51588;53.702;10.208;2023-08-12T07:30:11;12.53;;;6.90;;
64894;SDS011;51588;53.702;10.208;2023-08-12T07:32:37;16.80;;;7.40;;
64894;SDS011;51588;53.702;10.208;2023-08-12T07:35:04;12.80;;;6.83;;
64894;SDS011;51588;53.702;10.208;2023-08-12T07:37:32;11.13;;;6.50;;
64894;SDS011;51588;53.702;10.208;2023-08-12T07:39:59;10.67;;;6.13;;
64894;SDS011;51588;53.702;10.208;2023-08-12T07:42:26;14.37;;;6.40;;
64894;SDS011;51588;53.702;10.208;2023-08-12T07:44:52;9.40;;;5.83;;
64894;SDS011;51588;53.702;10.208;2023-08-12T07:47:19;8.77;;;6.00;;
64894;SDS011;51588;53.702;10.208;2023-08-12T07:49:46;10.60;;;6.37;;
64894;SDS011;51588;53.702;10.208;2023-08-12T07:52:13;8.30;;;5.83;;
64894;SDS011;51588;53.702;10.208;2023-08-12T07:54:39;10.40;;;5.90;;
64894;SDS011;51588;53.702;10.208;2023-08-12T07:57:07;7.67;;;5.43;;
64894;SDS011;51588;53.702;10.208;2023-08-12T07:59:33;9.93;;;6.17;;
64894;SDS011;51588;53.702;10.208;2023-08-12T08:01:59;8.83;;;5.70;;
64894;SDS011;51588;53.702;10.208;2023-08-12T08:04:26;10.37;;;6.27;;
64894;SDS011;51588;53.702;10.208;2023-08-12T08:06:52;7.83;;;5.70;;
64894;SDS011;51588;53.702;10.208;2023-08-12T08:09:19;9.97;;;4.97;;
64894;SDS011;51588;53.702;10.208;2023-08-12T08:11:45;8.03;;;5.40;;
64894;SDS011;51588;53.702;10.208;2023-08-12T08:14:13;9.07;;;5.20;;
64894;SDS011;51588;53.702;10.208;2023-08-12T08:16:39;10.23;;;5.20;;
64894;SDS011;51588;53.702;10.208;2023-08-12T08:19:06;10.97;;;5.30;;
64894;SDS011;51588;53.702;10.208;2023-08-12T08:21:34;8.20;;;5.20;;
64894;SDS011;51588;53.702;10.208;2023-08-12T08:24:01;7.70;;;5.27;;
64894;SDS011;51588;53.702;10.208;2023-08-12T08:26:27;5.60;;;4.73;;
64894;SDS011;51588;53.702;10.208;2023-08-12T08:28:53;9.03;;;5.60;;
64894;SDS011;51588;53.702;10.208;2023-08-12T08:31:21;11.63;;;7.30;;
64894;SDS011;51588;53.702;10.208;2023-08-12T08:33:47;7.23;;;5.30;;
64894;SDS011;51588;53.702;10.208;2023-08-12T08:36:14;9.00;;;5.73;;
64894;SDS011;51588;53.702;10.208;2023-08-12T08:38:41;9.23;;;5.10;;
64894;SDS011;51588;53.702;10.208;2023-08-12T08:41:08;11.40;;;5.30;;
64894;SDS011;51588;53.702;10.208;2023-08-12T08:43:35;8.67;;;5.63;;
64894;SDS011;51588;53.702;10.208;2023-08-12T08:46:01;6.23;;;5.10;;
64894;SDS011;51588;53.702;10.208;2023-08-12T08:48:30;8.93;;;5.17;;
64894;SDS011;51588;53.702;10.208;2023-08-12T08:50:56;10.47;;;5.90;;
64894;SDS011;51588;53.702;10.208;2023-08-12T08:53:23;9.10;;;5.77;;
64894;SDS011;51588;53.702;10.208;2023-08-12T08:55:50;10.63;;;6.07;;
64894;SDS011;51588;53.702;10.208;2023-08-12T08:58:18;10.30;;;6.10;;
64894;SDS011;51588;53.702;10.208;2023-08-12T09:00:44;6.67;;;5.20;;
64894;SDS011;51588;53.702;10.208;2023-08-12T09:03:11;9.40;;;5.43;;
64894;SDS011;51588;53.702;10.208;2023-08-12T09:05:39;7.57;;;5.40;;
64894;SDS011;51588;53.702;10.208;2023-08-12T09:08:06;11.60;;;6.43;;
64894;SDS011;51588;53.702;10.208;2023-08-12T09:10:35;9.40;;;5.87;;
64894;SDS011;51588;53.702;10.208;2023-08-12T09:13:02;7.37;;;5.10;;
64894;SDS011;51588;53.702;10.208;2023-08-12T09:15:28;10.03;;;5.43;;
64894;SDS011;51588;53.702;10.208;2023-08-12T09:17:55;13.03;;;5.50;;
64894;SDS011;51588;53.702;10.208;2023-08-12T09:20:21;11.13;;;5.30;;
64894;SDS011;51588;53.702;10.208;2023-08-12T09:22:52;6.63;;;5.07;;
64894;SDS011;51588;53.702;10.208;2023-08-12T09:25:21;6.50;;;5.10;;
64894;SDS011;51588;53.702;10.208;2023-08-12T09:27:48;7.50;;;5.27;;
64894;SDS011;51588;53.702;10.208;2023-08-12T09:30:15;6.10;;;5.00;;
64894;SDS011;51588;53.702;10.208;2023-08-12T09:32:41;5.80;;;4.77;;
64894;SDS011;51588;53.702;10.208;2023-08-12T09:35:10;8.50;;;5.20;;
64894;SDS011;51588;53.702;10.208;2023-08-12T09:37:41;5.13;;;4.63;;
64894;SDS011;51588;53.702;10.208;2023-08-12T09:40:09;5.40;;;4.90;;
64894;SDS011;51588;53.702;10.208;2023-08-12T09:42:36;7.17;;;5.40;;
64894;SDS011;51588;53.702;10.208;2023-08-12T09:45:02;5.53;;;5.00;;
64894;SDS011;51588;53.702;10.208;2023-08-12T09:47:29;7.47;;;5.00;;
64894;SDS011;51588;53.702;10.208;2023-08-12T09:49:55;5.60;;;5.10;;
64894;SDS011;51588;53.702;10.208;2023-08-12T09:52:22;5.43;;;4.93;;
64894;SDS011;51588;53.702;10.208;2023-08-12T09:54:48;6.93;;;5.10;;
64894;SDS011;51588;53.702;10.208;2023-08-12T09:57:17;6.87;;;4.97;;
64894;SDS011;51588;53.702;10.208;2023-08-12T09:59:44;7.30;;;4.97;;
64894;SDS011;51588;53.702;10.208;2023-08-12T10:02:12;5.87;;;5.27;;
64894;SDS011;51588;53.702;10.208;2023-08-12T10:04:44;7.30;;;5.10;;
64894;SDS011;51588;53.702;10.208;2023-08-12T10:07:11;6.63;;;5.13;;
64894;SDS011;51588;53.702;10.208;2023-08-12T10:09:38;6.90;;;5.10;;
64894;SDS011;51588;53.702;10.208;2023-08-12T10:12:05;5.20;;;4.70;;
64894;SDS011;51588;53.702;10.208;2023-08-12T10:14:33;6.50;;;5.20;;
64894;SDS011;51588;53.702;10.208;2023-08-12T10:17:00;7.20;;;5.40;;
64894;SDS011;51588;53.702;10.208;2023-08-12T10:19:26;7.70;;;5.47;;
64894;SDS011;51588;53.702;10.208;2023-08-12T10:21:54;5.60;;;4.73;;
64894;SDS011;51588;53.702;10.208;2023-08-12T10:24:21;6.20;;;5.60;;
64894;SDS011;51588;53.702;10.208;2023-08-12T10:26:47;6.83;;;4.87;;
64894;SDS011;51588;53.702;10.208;2023-08-12T10:29:15;5.77;;;4.87;;
64894;SDS011;51588;53.702;10.208;2023-08-12T10:31:42;5.97;;;4.93;;
64894;SDS011;51588;53.702;10.208;2023-08-12T10:34:17;5.37;;;4.63;;
64894;SDS011;51588;53.702;10.208;2023-08-12T10:36:43;5.70;;;5.10;;
64894;SDS011;51588;53.702;10.208;2023-08-12T10:39:10;6.03;;;4.90;;
64894;SDS011;51588;53.702;10.208;2023-08-12T10:41:36;6.17;;;5.50;;
64894;SDS011;51588;53.702;10.208;2023-08-12T10:44:05;5.30;;;4.80;;
64894;SDS011;51588;53.702;10.208;2023-08-12T10:46:32;5.83;;;4.90;;
64894;SDS011;51588;53.702;10.208;2023-08-12T10:49:02;7.67;;;5.00;;
64894;SDS011;51588;53.702;10.208;2023-08-12T10:51:43;6.53;;;5.27;;
64894;SDS011;51588;53.702;10.208;2023-08-12T10:54:13;6.30;;;5.70;;
64894;SDS011;51588;53.702;10.208;2023-08-12T11:02:05;7.83;;;6.23;;
64894;SDS011;51588;53.702;10.208;2023-08-12T11:04:38;7.20;;;6.10;;
64894;SDS011;51588;53.702;10.208;2023-08-12T11:07:14;7.80;;;5.83;;
64894;SDS011;51588;53.702;10.208;2023-08-12T11:09:40;7.37;;;6.17;;
64894;SDS011;51588;53.702;10.208;2023-08-12T11:12:06;6.07;;;5.27;;
64894;SDS011;51588;53.702;10.208;2023-08-12T11:14:38;6.40;;;5.37;;
64894;SDS011;51588;53.702;10.208;2023-08-12T11:17:13;6.47;;;5.57;;
64894;SDS011;51588;53.702;10.208;2023-08-12T11:19:41;5.87;;;5.30;;
64894;SDS011;51588;53.702;10.208;2023-08-12T11:22:07;7.00;;;5.27;;
64894;SDS011;51588;53.702;10.208;2023-08-12T11:24:34;5.83;;;4.90;;
64894;SDS011;51588;53.702;10.208;2023-08-12T11:27:02;6.53;;;4.93;;
64894;SDS011;51588;53.702;10.208;2023-08-12T11:29:28;5.30;;;4.80;;
64894;SDS011;51588;53.702;10.208;2023-08-12T11:31:55;6.13;;;4.80;;
64894;SDS011;51588;53.702;10.208;2023-08-12T11:34:21;5.43;;;4.93;;
64894;SDS011;51588;53.702;10.208;2023-08-12T11:36:49;5.17;;;4.53;;
64894;SDS011;51588;53.702;10.208;2023-08-12T11:39:15;6.93;;;5.20;;
64894;SDS011;51588;53.702;10.208;2023-08-12T11:41:42;6.60;;;5.43;;
64894;SDS011;51588;53.702;10.208;2023-08-12T11:44:11;6.00;;;4.93;;
64894;SDS011;51588;53.702;10.208;2023-08-12T11:46:37;5.53;;;4.70;;
64894;SDS011;51588;53.702;10.208;2023-08-12T11:49:04;5.77;;;4.80;;
64894;SDS011;51588;53.702;10.208;2023-08-12T11:51:30;5.00;;;4.50;;
64894;SDS011;51588;53.702;10.208;2023-08-12T11:53:58;7.03;;;5.03;;
64894;SDS011;51588;53.702;10.208;2023-08-12T11:56:24;4.80;;;4.30;;
64894;SDS011;51588;53.702;10.208;2023-08-12T11:58:51;5.57;;;5.00;;
64894;SDS011;51588;53.702;10.208;2023-08-12T12:01:18;5.30;;;4.70;;
64894;SDS011;51588;53.702;10.208;2023-08-12T12:03:44;6.03;;;4.90;;
64894;SDS011;51588;53.702;10.208;2023-08-12T12:06:12;4.90;;;4.20;;
64894;SDS011;51588;53.702;10.208;2023-08-12T12:08:38;4.90;;;4.40;;
64894;SDS011;51588;53.702;10.208;2023-08-12T12:11:06;6.40;;;5.33;;
64894;SDS011;51588;53.702;10.208;2023-08-12T12:13:32;5.23;;;4.73;;
64894;SDS011;51588;53.702;10.208;2023-08-12T12:15:59;5.43;;;4.07;;
64894;SDS011;51588;53.702;10.208;2023-08-12T12:18:26;4.83;;;4.33;;
64894;SDS011;51588;53.702;10.208;2023-08-12T12:20:55;7.67;;;4.43;;
64894;SDS011;51588;53.702;10.208;2023-08-12T12:23:21;5.27;;;4.20;;
64894;SDS011;51588;53.702;10.208;2023-08-12T12:25:48;6.40;;;4.30;;
64894;SDS011;51588;53.702;10.208;2023-08-12T12:28:16;5.67;;;4.13;;
64894;SDS011;51588;53.702;10.208;2023-08-12T12:30:42;4.40;;;3.63;;
64894;SDS011;51588;53.702;10.208;2023-08-12T12:33:09;4.90;;;4.37;;
64894;SDS011;51588;53.702;10.208;2023-08-12T12:35:35;4.50;;;4.10;;
64894;SDS011;51588;53.702;10.208;2023-08-12T12:38:01;4.53;;;4.13;;
64894;SDS011;51588;53.702;10.208;2023-08-12T12:40:28;7.70;;;4.60;;
64894;SDS011;51588;53.702;10.208;2023-08-12T12:42:54;4.97;;;4.43;;
64894;SDS011;51588;53.702;10.208;2023-08-12T12:45:22;4.80;;;4.27;;
64894;SDS011;51588;53.702;10.208;2023-08-12T12:47:48;4.53;;;3.93;;
64894;SDS011;51588;53.702;10.208;2023-08-12T12:50:15;5.83;;;4.20;;
64894;SDS011;51588;53.702;10.208;2023-08-12T12:52:42;4.40;;;4.00;;
64894;SDS011;51588;53.702;10.208;2023-08-12T12:55:09;4.67;;;4.27;;
64894;SDS011;51588;53.702;10.208;2023-08-12T12:57:35;5.03;;;4.53;;
64894;SDS011;51588;53.702;10.208;2023-08-12T13:00:02;4.20;;;3.80;;
64894;SDS011;51588;53.702;10.208;2023-08-12T13:02:30;5.40;;;4.20;;
64894;SDS011;51588;53.702;10.208;2023-08-12T13:04:57;6.27;;;4.40;;
64894;SDS011;51588;53.702;10.208;2023-08-12T13:07:23;5.23;;;4.10;;
64894;SDS011;51588;53.702;10.208;2023-08-12T13:09:49;5.10;;;4.60;;
64894;SDS011;51588;53.702;10.208;2023-08-12T13:12:16;9.30;;;5.00;;
64894;SDS011;51588;53.702;10.208;2023-08-12T13:14:42;5.93;;;5.10;;
64894;SDS011;51588;53.702;10.208;2023-08-12T13:17:08;14.13;;;5.50;;
64894;SDS011;51588;53.702;10.208;2023-08-12T13:19:36;13.60;;;6.63;;
64894;SDS011;51588;53.702;10.208;2023-08-12T13:22:02;15.37;;;6.60;;
64894;SDS011;51588;53.702;10.208;2023-08-12T13:24:29;15.80;;;7.03;;
64894;SDS011;51588;53.702;10.208;2023-08-12T13:26:56;12.20;;;6.77;;
64894;SDS011;51588;53.702;10.208;2023-08-12T13:29:22;11.77;;;6.20;;
64894;SDS011;51588;53.702;10.208;2023-08-12T13:31:48;12.33;;;5.97;;
64894;SDS011;51588;53.702;10.208;2023-08-12T13:34:15;14.67;;;6.00;;
64894;SDS011;51588;53.702;10.208;2023-08-12T13:36:44;10.47;;;5.60;;
64894;SDS011;51588;53.702;10.208;2023-08-12T13:39:10;11.83;;;5.50;;
64894;SDS011;51588;53.702;10.208;2023-08-12T13:41:36;10.03;;;5.60;;
64894;SDS011;51588;53.702;10.208;2023-08-12T13:44:03;9.90;;;5.80;;
64894;SDS011;51588;53.702;10.208;2023-08-12T13:46:29;10.80;;;5.73;;
64894;SDS011;51588;53.702;10.208;2023-08-12T13:48:56;9.70;;;5.47;;
64894;SDS011;51588;53.702;10.208;2023-08-12T13:51:22;8.10;;;5.40;;
64894;SDS011;51588;53.702;10.208;2023-08-12T13:53:50;6.33;;;4.57;;
64894;SDS011;51588;53.702;10.208;2023-08-12T13:56:16;5.57;;;4.97;;
64894;SDS011;51588;53.702;10.208;2023-08-12T13:58:42;6.50;;;5.03;;
64894;SDS011;51588;53.702;10.208;2023-08-12T14:01:09;6.80;;;5.03;;
64894;SDS011;51588;53.702;10.208;2023-08-12T14:03:35;7.77;;;5.43;;
64894;SDS011;51588;53.702;10.208;2023-08-12T14:06:02;7.13;;;4.90;;
64894;SDS011;51588;53.702;10.208;2023-08-12T14:08:28;6.90;;;5.10;;
64894;SDS011;51588;53.702;10.208;2023-08-12T14:10:56;6.77;;;4.63;;
64894;SDS011;51588;53.702;10.208;2023-08-12T14:13:22;6.73;;;4.80;;
64894;SDS011;51588;53.702;10.208;2023-08-12T14:15:49;7.67;;;5.17;;
64894;SDS011;51588;53.702;10.208;2023-08-12T14:18:15;6.13;;;4.80;;
64894;SDS011;51588;53.702;10.208;2023-08-12T14:20:42;9.73;;;5.40;;
64894;SDS011;51588;53.702;10.208;2023-08-12T14:23:08;7.70;;;5.40;;
64894;SDS011;51588;53.702;10.208;2023-08-12T14:25:34;5.23;;;4.60;;
64894;SDS011;51588;53.702;10.208;2023-08-12T14:28:02;6.30;;;4.67;;
64894;SDS011;51588;53.702;10.208;2023-08-12T14:30:29;6.63;;;4.90;;
64894;SDS011;51588;53.702;10.208;2023-08-12T14:32:55;8.60;;;4.70;;
64894;SDS011;51588;53.702;10.208;2023-08-12T14:35:21;7.57;;;4.57;;
64894;SDS011;51588;53.702;10.208;2023-08-12T14:37:48;5.70;;;4.93;;